Time;durP1;ratioP1;P1;durP2;ratioP2;P2;SDS_P1;SDS_P2;PMS_P1;PMS_P2;Temp;Humidity;BMP_temperature;BMP_pressure;BME280_temperature;BME280_humidity;BME280_pressure;Samples;Min_cycle;Max_cycle;Signal;HPM_P1;HPM_P2
2024/01/05 00:01:12;;;;;;;3.95;2.33;;;;;;;-12.12;100.00;101095.78;5054578;28;20074;-72
2024/01/05 00:03:38;;;;;;;7.35;2.22;;;;;;;-12.13;100.00;101100.13;5054260;28;20035;-72
2024/01/05 00:06:03;;;;;;;4.25;2.25;;;;;;;-12.09;100.00;101103.47;5037815;28;20024;-72
2024/01/05 00:08:28;;;;;;;3.15;1.65;;;;;;;-12.33;100.00;101059.25;5053709;28;20068;-72
2024/01/05 00:10:54;;;;;;;5.75;2.45;;;;;;;-12.12;100.00;101101.84;5054095;28;20028;-72
2024/01/05 00:13:19;;;;;;;4.13;2.40;;;;;;;-12.12;100.00;101098.38;5054538;28;20035;-72
2024/01/05 00:15:44;;;;;;;5.65;2.20;;;;;;;-12.18;100.00;101090.81;5071963;28;20033;-72
2024/01/05 00:18:10;;;;;;;4.43;2.25;;;;;;;-12.18;100.00;101101.19;5054289;28;20111;-72
2024/01/05 00:20:35;;;;;;;5.40;2.17;;;;;;;-12.35;100.00;101071.44;5053928;28;20050;-72
2024/01/05 00:23:00;;;;;;;4.50;2.35;;;;;;;-12.30;100.00;101086.84;5077278;28;20043;-72
2024/01/05 00:25:26;;;;;;;6.75;2.40;;;;;;;-12.33;100.00;101082.59;5080401;28;20566;-72
2024/01/05 00:27:52;;;;;;;8.88;2.80;;;;;;;-12.28;100.00;101099.75;5054706;28;20094;-72
2024/01/05 00:30:18;;;;;;;6.72;3.10;;;;;;;-12.32;100.00;101099.84;5056590;28;20035;-72
2024/01/05 00:32:45;;;;;;;4.47;2.40;;;;;;;-12.33;100.00;101097.31;5031044;28;20031;-72
2024/01/05 00:35:10;;;;;;;3.92;2.40;;;;;;;-12.35;100.00;101094.78;5062080;28;20036;-72
2024/01/05 00:37:36;;;;;;;4.63;2.20;;;;;;;-12.42;100.00;101093.25;5056408;28;20392;-72
2024/01/05 00:40:02;;;;;;;5.10;2.40;;;;;;;-12.44;100.00;101089.88;5038926;28;20040;-72
2024/01/05 00:42:28;;;;;;;7.45;3.08;;;;;;;-12.44;100.00;101094.22;5054225;28;20475;-72
2024/01/05 00:44:55;;;;;;;6.82;2.80;;;;;;;-12.47;100.00;101089.94;5021259;28;20028;-72
2024/01/05 00:47:20;;;;;;;5.03;2.42;;;;;;;-12.52;100.00;101080.59;5057456;28;20074;-72
2024/01/05 00:49:46;;;;;;;4.82;2.40;;;;;;;-12.64;100.00;101068.88;5041537;28;20041;-72
2024/01/05 00:52:12;;;;;;;4.72;2.30;;;;;;;-12.59;100.00;101082.53;5024945;28;20064;-72
2024/01/05 00:54:38;;;;;;;5.18;2.35;;;;;;;-12.62;100.00;101091.25;5058051;28;20028;-72
2024/01/05 00:57:04;;;;;;;3.85;2.38;;;;;;;-12.84;100.00;101054.75;5057833;28;20040;-72
2024/01/05 00:59:31;;;;;;;5.82;2.47;;;;;;;-12.77;100.00;101080.50;5056862;28;20028;-72
2024/01/05 01:01:57;;;;;;;6.00;2.53;;;;;;;-12.94;100.00;101063.69;5078873;28;20395;-72
2024/01/05 01:04:22;;;;;;;4.88;2.50;;;;;;;-12.87;100.00;101085.94;5063125;28;20033;-72
2024/01/05 01:06:48;;;;;;;3.92;2.22;;;;;;;-12.90;100.00;101087.75;5041453;28;20025;-72
2024/01/05 01:09:13;;;;;;;4.53;2.63;;;;;;;-12.95;100.00;101093.06;5046242;28;20113;-73
2024/01/05 01:11:38;;;;;;;5.15;2.97;;;;;;;-13.13;100.00;101068.53;5065524;28;20032;-72
2024/01/05 01:14:04;;;;;;;5.85;2.65;;;;;;;-13.18;100.00;101057.44;5057725;28;20074;-72
2024/01/05 01:16:31;;;;;;;4.07;2.33;;;;;;;-13.00;100.00;101089.75;5075904;28;20039;-72
2024/01/05 01:18:57;;;;;;;4.70;2.55;;;;;;;-13.03;100.00;101095.03;5057847;28;20028;-72
2024/01/05 01:21:24;;;;;;;6.63;2.40;;;;;;;-13.17;100.00;101068.66;5057811;28;20096;-72
2024/01/05 01:23:51;;;;;;;4.00;2.35;;;;;;;-13.09;100.00;101097.78;5041070;28;20033;-72
2024/01/05 01:26:16;;;;;;;6.78;2.60;;;;;;;-13.10;100.00;101098.69;5057778;28;20048;-72
2024/01/05 01:28:41;;;;;;;4.35;2.30;;;;;;;-13.37;100.00;101051.97;5074480;28;20206;-72
2024/01/05 01:31:07;;;;;;;4.50;2.35;;;;;;;-13.09;100.00;101101.22;5059061;28;20048;-72
2024/01/05 01:33:32;;;;;;;4.55;2.38;;;;;;;-13.11;100.00;101100.44;5076921;28;20033;-72
2024/01/05 01:35:57;;;;;;;4.07;2.42;;;;;;;-13.28;100.00;101076.75;5025536;28;20074;-72
2024/01/05 01:38:23;;;;;;;5.72;2.60;;;;;;;-13.14;100.00;101107.41;5056555;28;20031;-72
2024/01/05 01:40:48;;;;;;;4.22;2.22;;;;;;;-13.18;100.00;101106.63;5056932;28;20051;-72
2024/01/05 01:43:22;;;;;;;6.07;2.22;;;;;;;-13.15;100.00;101103.13;5074662;28;20515;-72
2024/01/05 01:45:48;;;;;;;3.92;2.30;;;;;;;-13.05;100.00;101094.22;5056737;28;20084;-72
2024/01/05 01:48:17;;;;;;;3.50;1.88;;;;;;;-13.13;100.00;101084.06;5078056;28;20051;-72
2024/01/05 01:50:42;;;;;;;4.90;2.30;;;;;;;-13.15;100.00;101069.47;5075322;28;20027;-72
2024/01/05 01:53:10;;;;;;;5.32;2.50;;;;;;;-12.92;100.00;101105.94;5056922;28;20028;-72
2024/01/05 01:55:36;;;;;;;4.25;2.30;;;;;;;-12.92;100.00;101107.66;5056635;28;20063;-72
2024/01/05 01:58:01;;;;;;;4.70;2.58;;;;;;;-12.92;100.00;101108.50;5073567;28;20024;-73
2024/01/05 02:00:27;;;;;;;4.97;2.47;;;;;;;-12.90;100.00;101105.91;5073447;28;20538;-71
2024/01/05 02:02:55;;;;;;;5.13;2.38;;;;;;;-13.07;100.00;101080.47;5040347;28;20128;-72
2024/01/05 02:05:20;;;;;;;6.50;2.08;;;;;;;-13.12;100.00;101059.88;5073090;28;20577;-72
2024/01/05 02:07:46;;;;;;;4.03;2.08;;;;;;;-12.90;100.00;101093.78;5055982;28;20040;-71
2024/01/05 02:10:11;;;;;;;6.75;1.88;;;;;;;-12.78;100.00;101108.13;5056289;28;20107;-71
2024/01/05 02:12:36;;;;;;;4.55;2.15;;;;;;;-12.71;100.00;101107.09;5039612;28;20039;-72
2024/01/05 02:15:02;;;;;;;4.95;1.90;;;;;;;-12.65;100.00;101111.22;5056754;28;20039;-71
2024/01/05 02:17:33;;;;;;;4.32;2.28;;;;;;;-12.66;100.00;101096.56;5040715;28;20502;-72
2024/01/05 02:19:59;;;;;;;4.20;2.00;;;;;;;-12.57;100.00;101114.44;5057562;28;20518;-72
2024/01/05 02:22:29;;;;;;;5.13;2.22;;;;;;;-12.53;100.00;101113.47;5072909;28;20051;-72
2024/01/05 02:24:57;;;;;;;5.32;2.50;;;;;;;-12.84;100.00;101072.91;5086322;28;20040;-72
2024/01/05 02:27:22;;;;;;;3.75;2.03;;;;;;;-12.60;100.00;101115.38;5064917;28;20017;-72
2024/01/05 02:29:47;;;;;;;3.00;1.83;;;;;;;-12.59;100.00;101111.03;5040003;28;20103;-72
2024/01/05 02:32:13;;;;;;;4.57;2.33;;;;;;;-12.59;100.00;101113.63;5056500;28;20028;-72
2024/01/05 02:34:38;;;;;;;4.00;2.20;;;;;;;-12.65;100.00;101108.63;5074349;28;20028;-72
2024/01/05 02:37:04;;;;;;;5.03;2.60;;;;;;;-12.67;100.00;101105.25;5055907;28;20063;-72
2024/01/05 02:39:30;;;;;;;6.63;2.30;;;;;;;-12.74;100.00;101090.78;5056630;28;20027;-71
2024/01/05 02:41:55;;;;;;;3.50;1.98;;;;;;;-13.21;100.00;101026.44;5055907;28;20028;-71
2024/01/05 02:44:21;;;;;;;5.90;2.20;;;;;;;-12.74;100.00;101101.97;5073479;28;20055;-71
2024/01/05 02:46:46;;;;;;;3.20;2.20;;;;;;;-12.72;100.00;101114.88;5039331;28;20048;-71
2024/01/05 02:49:11;;;;;;;5.57;2.40;;;;;;;-12.71;100.00;101106.19;5056164;28;20491;-71
2024/01/05 02:51:37;;;;;;;4.15;2.13;;;;;;;-12.67;100.00;101113.88;5055846;28;20373;-71
2024/01/05 02:54:02;;;;;;;4.63;2.47;;;;;;;-12.68;100.00;101116.47;5055728;28;20475;-69
2024/01/05 02:56:27;;;;;;;3.42;1.92;;;;;;;-12.71;100.00;101122.63;5055326;28;20107;-71
2024/01/05 02:58:53;;;;;;;6.75;2.45;;;;;;;-12.85;100.00;101091.91;5055835;28;20035;-71
2024/01/05 03:01:19;;;;;;;2.58;1.83;;;;;;;-12.92;100.00;101086.94;5073518;28;20093;-71
2024/01/05 03:03:46;;;;;;;5.13;2.15;;;;;;;-12.93;100.00;101082.66;5073739;28;20046;-72
2024/01/05 03:06:14;;;;;;;5.18;2.15;;;;;;;-12.74;100.00;101111.50;5038556;28;20028;-71
2024/01/05 03:08:39;;;;;;;4.88;1.90;;;;;;;-12.94;100.00;101076.66;5054869;28;20034;-71
2024/01/05 03:11:04;;;;;;;4.32;2.10;;;;;;;-12.79;100.00;101104.69;5038637;28;20095;-72
2024/01/05 03:13:30;;;;;;;4.85;2.05;;;;;;;-12.76;100.00;101113.28;5055317;28;20556;-71
2024/01/05 03:15:56;;;;;;;4.97;2.05;;;;;;;-12.75;100.00;101120.16;5073051;28;20036;-72
2024/01/05 03:18:21;;;;;;;4.65;2.03;;;;;;;-12.91;100.00;101070.50;5056337;28;20024;-72
2024/01/05 03:20:46;;;;;;;3.42;2.28;;;;;;;-12.62;100.00;101113.72;5072876;28;20028;-71
2024/01/05 03:23:12;;;;;;;5.20;1.90;;;;;;;-12.64;100.00;101103.41;5055840;28;20123;-71
2024/01/05 03:25:37;;;;;;;4.45;1.80;;;;;;;-12.84;100.00;101069.47;5073368;28;20060;-72
2024/01/05 03:28:03;;;;;;;4.05;2.00;;;;;;;-12.60;100.00;101104.16;5055186;28;20051;-71
2024/01/05 03:30:28;;;;;;;2.83;1.60;;;;;;;-12.53;100.00;101100.50;5055309;28;20025;-71
2024/01/05 03:32:54;;;;;;;3.22;1.92;;;;;;;-12.52;100.00;101091.81;5087782;28;20035;-72
2024/01/05 03:35:20;;;;;;;4.53;2.05;;;;;;;-12.57;100.00;101091.97;5074801;28;20024;-72
2024/01/05 03:37:45;;;;;;;4.70;2.33;;;;;;;-12.53;100.00;101087.53;5055802;28;20042;-71
2024/01/05 03:40:10;;;;;;;4.40;1.60;;;;;;;-12.55;100.00;101091.91;5089595;28;20012;-72
2024/01/05 03:42:36;;;;;;;4.88;1.90;;;;;;;-12.58;100.00;101092.00;5061731;28;20088;-70
2024/01/05 03:45:01;;;;;;;3.63;1.92;;;;;;;-12.73;100.00;101069.16;5040444;28;20032;-72
2024/01/05 03:47:27;;;;;;;7.72;2.80;;;;;;;-12.68;100.00;101090.56;5063945;28;20025;-71
2024/01/05 03:49:52;;;;;;;4.00;1.83;;;;;;;-12.70;100.00;101090.63;5064147;28;20059;-72
2024/01/05 03:52:17;;;;;;;5.13;2.22;;;;;;;-12.70;100.00;101094.97;5055312;28;20119;-71
2024/01/05 03:54:43;;;;;;;5.75;2.00;;;;;;;-12.88;100.00;101062.66;5072895;28;20028;-71
2024/01/05 03:57:09;;;;;;;5.78;2.40;;;;;;;-12.76;100.00;101093.38;5054951;28;20115;-70
2024/01/05 03:59:34;;;;;;;4.22;2.08;;;;;;;-12.80;100.00;101097.81;5053742;28;20391;-72
2024/01/05 04:01:59;;;;;;;5.22;2.20;;;;;;;-12.84;100.00;101091.03;5071929;28;20056;-71
2024/01/05 04:04:25;;;;;;;5.55;2.20;;;;;;;-12.83;100.00;101105.66;5054150;28;20033;-71
2024/01/05 04:06:51;;;;;;;3.97;1.90;;;;;;;-12.88;100.00;101096.31;5054164;28;20033;-71
2024/01/05 04:09:16;;;;;;;5.72;1.90;;;;;;;-12.88;100.00;101098.91;5062501;28;20028;-71
2024/01/05 04:11:43;;;;;;;5.05;2.00;;;;;;;-12.92;100.00;101102.50;5057876;28;20028;-70
2024/01/05 04:14:08;;;;;;;3.38;1.92;;;;;;;-12.95;100.00;101102.56;5038698;28;20111;-71
2024/01/05 04:16:34;;;;;;;4.47;1.77;;;;;;;-13.00;100.00;101102.72;5037858;28;20100;-71
2024/01/05 04:19:00;;;;;;;4.00;2.10;;;;;;;-13.04;100.00;101101.09;5072796;28;20024;-71
2024/01/05 04:21:26;;;;;;;3.65;1.83;;;;;;;-13.07;100.00;101111.53;5075505;28;20440;-71
2024/01/05 04:23:55;;;;;;;2.97;1.63;;;;;;;-13.21;100.00;101087.75;5077193;28;20029;-71
2024/01/05 04:26:21;;;;;;;2.80;1.58;;;;;;;-13.21;100.00;101091.19;5058747;28;20487;-71
2024/01/05 04:28:46;;;;;;;3.03;1.60;;;;;;;-13.17;100.00;101099.75;5075931;28;20054;-71
2024/01/05 04:31:11;;;;;;;4.68;1.88;;;;;;;-13.20;100.00;101105.00;5058931;28;20052;-71
2024/01/05 04:33:36;;;;;;;3.33;1.48;;;;;;;-13.23;100.00;101097.31;5077016;28;20028;-71
2024/01/05 04:36:03;;;;;;;3.70;1.90;;;;;;;-13.29;100.00;101099.19;5060111;28;20036;-72
2024/01/05 04:38:29;;;;;;;5.45;1.85;;;;;;;-13.35;100.00;101094.19;5059990;28;20040;-71
2024/01/05 04:40:55;;;;;;;4.60;2.10;;;;;;;-13.40;100.00;101093.47;5067325;28;20036;-71
2024/01/05 04:43:20;;;;;;;4.78;2.13;;;;;;;-13.56;100.00;101064.53;5084620;28;20125;-71
2024/01/05 04:45:46;;;;;;;2.67;1.85;;;;;;;-13.34;100.00;101098.47;5060370;28;20025;-71
2024/01/05 04:48:12;;;;;;;4.13;1.98;;;;;;;-13.35;100.00;101086.41;5060862;28;20029;-71
2024/01/05 04:50:38;;;;;;;4.40;2.15;;;;;;;-13.30;100.00;101096.66;5060020;28;20082;-71
2024/01/05 04:53:03;;;;;;;3.65;2.05;;;;;;;-13.36;100.00;101081.28;5065512;28;20012;-71
2024/01/05 04:55:28;;;;;;;3.90;2.10;;;;;;;-13.26;100.00;101098.28;5055852;28;20031;-72
2024/01/05 04:57:54;;;;;;;4.57;1.92;;;;;;;-13.24;100.00;101098.22;5058280;28;20071;-71
2024/01/05 05:00:19;;;;;;;3.90;2.13;;;;;;;-13.36;100.00;101074.38;5058243;28;20061;-71
2024/01/05 05:02:45;;;;;;;4.93;1.92;;;;;;;-13.11;100.00;101096.97;5040698;28;20031;-71
2024/01/05 05:05:10;;;;;;;6.43;1.90;;;;;;;-13.15;100.00;101098.78;5040670;28;20398;-71
2024/01/05 05:07:36;;;;;;;4.28;1.98;;;;;;;-13.11;100.00;101099.53;5075896;28;20036;-70
2024/01/05 05:10:03;;;;;;;3.65;1.98;;;;;;;-13.09;100.00;101106.41;5057745;28;20078;-71
2024/01/05 05:12:30;;;;;;;5.13;2.03;;;;;;;-13.06;100.00;101108.06;5075417;28;20072;-71
2024/01/05 05:14:58;;;;;;;5.30;2.20;;;;;;;-13.00;100.00;101112.22;5041506;28;20066;-71
2024/01/05 05:17:23;;;;;;;2.75;1.50;;;;;;;-12.92;100.00;101107.66;5041359;28;20445;-71
2024/01/05 05:19:54;;;;;;;4.20;1.65;;;;;;;-12.86;100.00;101107.50;5057389;28;20021;-71
2024/01/05 05:22:20;;;;;;;6.40;1.90;;;;;;;-12.83;100.00;101113.44;5058713;28;20039;-71
2024/01/05 05:24:45;;;;;;;4.05;1.80;;;;;;;-12.85;100.00;101114.38;5058385;28;20037;-71
2024/01/05 05:27:10;;;;;;;3.75;1.90;;;;;;;-12.84;100.00;101116.94;5059141;28;20088;-71
2024/01/05 05:29:36;;;;;;;5.13;2.00;;;;;;;-12.84;100.00;101113.50;5059551;28;20047;-71
2024/01/05 05:32:01;;;;;;;4.50;2.00;;;;;;;-12.82;100.00;101112.53;5025990;28;20032;-71
2024/01/05 05:34:26;;;;;;;2.72;1.58;;;;;;;-12.99;100.00;101090.59;5060801;28;20035;-69
2024/01/05 05:36:52;;;;;;;2.58;1.50;;;;;;;-12.80;100.00;101113.38;5046727;28;20044;-68
2024/01/05 05:39:17;;;;;;;6.13;1.92;;;;;;;-12.80;100.00;101113.38;5064406;28;20418;-70
2024/01/05 05:41:42;;;;;;;4.20;1.90;;;;;;;-12.84;100.00;101100.56;5082520;28;20550;-70
2024/01/05 05:44:08;;;;;;;3.15;1.77;;;;;;;-12.84;100.00;101106.56;5083087;28;20040;-70
2024/01/05 05:46:33;;;;;;;3.75;2.10;;;;;;;-12.84;100.00;101110.91;5058508;28;20035;-71
2024/01/05 05:48:58;;;;;;;3.78;2.00;;;;;;;-12.85;100.00;101117.81;5040810;28;20123;-71
2024/01/05 05:51:24;;;;;;;4.15;1.83;;;;;;;-12.98;100.00;101090.56;5057244;28;20063;-71
2024/01/05 05:53:49;;;;;;;5.10;1.98;;;;;;;-12.99;100.00;101104.41;5075457;28;20036;-71
2024/01/05 05:56:14;;;;;;;4.43;1.90;;;;;;;-12.85;100.00;101120.41;5057061;28;20059;-72
2024/01/05 05:58:40;;;;;;;5.00;1.95;;;;;;;-12.95;100.00;101103.41;5074756;28;20418;-71
2024/01/05 06:01:05;;;;;;;4.72;2.10;;;;;;;-12.88;100.00;101114.47;5075068;28;20039;-71
2024/01/05 06:03:31;;;;;;;4.68;1.50;;;;;;;-12.89;100.00;101125.72;5058370;28;20029;-71
2024/01/05 06:05:57;;;;;;;5.10;2.08;;;;;;;-12.94;100.00;101127.59;5056376;28;20032;-71
2024/01/05 06:08:23;;;;;;;3.90;2.17;;;;;;;-13.00;100.00;101133.78;5070650;28;20035;-71
2024/01/05 06:10:48;;;;;;;5.18;1.77;;;;;;;-13.05;100.00;101108.00;5062020;28;20032;-71
2024/01/05 06:13:13;;;;;;;3.03;1.58;;;;;;;-12.90;100.00;101127.47;5039708;28;20085;-72
2024/01/05 06:15:39;;;;;;;4.78;2.10;;;;;;;-12.97;100.00;101125.09;5056879;28;20028;-71
2024/01/05 06:18:04;;;;;;;5.40;2.22;;;;;;;-12.96;100.00;101131.97;5039891;28;20044;-71
2024/01/05 06:20:29;;;;;;;5.10;2.33;;;;;;;-12.97;100.00;101118.19;5040898;28;20043;-71
2024/01/05 06:22:56;;;;;;;4.40;2.30;;;;;;;-12.93;100.00;101130.13;5041467;28;20028;-72
2024/01/05 06:25:22;;;;;;;4.47;2.40;;;;;;;-13.03;100.00;101114.00;5075153;28;20165;-71
2024/01/05 06:27:47;;;;;;;5.70;2.30;;;;;;;-12.95;100.00;101126.72;5040083;28;20497;-71
2024/01/05 06:30:13;;;;;;;4.75;2.03;;;;;;;-12.97;100.00;101131.13;5043737;28;20510;-71
2024/01/05 06:32:38;;;;;;;5.70;2.15;;;;;;;-13.01;100.00;101124.34;5062915;28;20024;-71
2024/01/05 06:35:07;;;;;;;3.42;2.05;;;;;;;-13.05;100.00;101122.69;5059463;28;20395;-71
2024/01/05 06:37:33;;;;;;;3.88;2.13;;;;;;;-13.07;100.00;101129.69;5058089;28;20021;-71
2024/01/05 06:39:58;;;;;;;5.95;2.05;;;;;;;-13.12;100.00;101136.69;5040120;28;20028;-71
2024/01/05 06:42:23;;;;;;;4.18;2.10;;;;;;;-13.16;100.00;101138.53;5055899;28;20068;-72
2024/01/05 06:44:50;;;;;;;7.00;2.42;;;;;;;-13.22;100.00;101120.56;5056298;28;20021;-72
2024/01/05 06:47:16;;;;;;;4.75;2.05;;;;;;;-13.26;100.00;101117.25;5056942;28;20031;-71
2024/01/05 06:49:41;;;;;;;3.72;1.77;;;;;;;-13.15;100.00;101134.19;5074052;28;20479;-72
2024/01/05 06:52:07;;;;;;;3.72;2.00;;;;;;;-13.11;100.00;101138.38;5056216;28;20094;-71
2024/01/05 06:54:34;;;;;;;3.55;1.77;;;;;;;-13.09;100.00;101136.63;5073813;28;20174;-71
2024/01/05 06:56:59;;;;;;;4.25;2.20;;;;;;;-13.08;100.00;101139.19;5056309;28;20500;-71
2024/01/05 06:59:26;;;;;;;3.00;2.00;;;;;;;-13.42;100.00;101087.47;5055831;28;20110;-71
2024/01/05 07:01:51;;;;;;;3.08;1.67;;;;;;;-13.14;100.00;101128.13;5056180;28;20034;-71
2024/01/05 07:04:17;;;;;;;4.82;2.05;;;;;;;-13.13;100.00;101129.84;5055420;28;20461;-71
2024/01/05 07:06:42;;;;;;;7.32;2.33;;;;;;;-13.16;100.00;101137.69;5038428;28;20028;-71
2024/01/05 07:09:08;;;;;;;3.55;1.80;;;;;;;-13.19;100.00;101133.44;5038212;28;20056;-70
2024/01/05 07:11:33;;;;;;;4.63;2.28;;;;;;;-13.19;100.00;101141.19;5073719;28;20028;-70
2024/01/05 07:13:58;;;;;;;6.32;2.05;;;;;;;-13.40;100.00;101118.50;5057724;28;20032;-71
2024/01/05 07:16:24;;;;;;;3.92;1.88;;;;;;;-13.28;100.00;101139.72;5085271;28;20037;-72
2024/01/05 07:18:50;;;;;;;4.85;2.00;;;;;;;-13.30;100.00;101136.34;5077592;28;20110;-72
2024/01/05 07:21:16;;;;;;;3.22;1.58;;;;;;;-13.29;100.00;101129.41;5055887;28;20035;-72
2024/01/05 07:23:42;;;;;;;4.22;2.17;;;;;;;-13.29;100.00;101132.84;5073988;28;20033;-72
2024/01/05 07:26:09;;;;;;;3.22;1.70;;;;;;;-13.22;100.00;101137.84;5061920;28;20024;-71
2024/01/05 07:28:35;;;;;;;2.72;1.60;;;;;;;-13.19;100.00;101135.16;5079640;28;20051;-71
2024/01/05 07:31:06;;;;;;;2.95;1.45;;;;;;;-13.17;100.00;101133.41;5074881;28;20021;-70
2024/01/05 07:33:32;;;;;;;3.70;1.83;;;;;;;-13.13;100.00;101135.00;5023287;28;20392;-71
2024/01/05 07:36:01;;;;;;;3.83;1.73;;;;;;;-13.22;100.00;101102.44;5055568;28;20055;-72
2024/01/05 07:38:27;;;;;;;4.70;1.75;;;;;;;-13.16;100.00;101101.44;5073316;28;20037;-71
2024/01/05 07:40:52;;;;;;;3.67;1.70;;;;;;;-13.21;100.00;101092.94;5055152;28;20085;-71
2024/01/05 07:43:17;;;;;;;3.78;1.98;;;;;;;-12.94;100.00;101136.22;5039101;28;20080;-72
2024/01/05 07:45:42;;;;;;;3.22;1.90;;;;;;;-12.96;100.00;101137.16;5072528;28;20086;-71
2024/01/05 07:48:08;;;;;;;2.90;1.67;;;;;;;-12.98;100.00;101133.75;5038142;28;20074;-72
2024/01/05 07:50:33;;;;;;;2.95;1.65;;;;;;;-12.95;100.00;101134.50;5054911;28;20524;-72
2024/01/05 07:52:58;;;;;;;3.47;1.90;;;;;;;-12.95;100.00;101139.69;5042681;28;20542;-72
2024/01/05 07:55:24;;;;;;;6.45;1.52;;;;;;;-12.91;100.00;101136.13;5064958;28;20032;-71
2024/01/05 07:57:49;;;;;;;2.53;1.35;;;;;;;-12.87;100.00;101142.09;5059077;28;20511;-72
2024/01/05 08:00:15;;;;;;;4.05;1.95;;;;;;;-12.90;100.00;101130.06;5055224;28;20040;-71
2024/01/05 08:02:40;;;;;;;2.55;1.70;;;;;;;-12.98;100.00;101118.19;5037513;28;20090;-72
2024/01/05 08:05:07;;;;;;;2.97;1.90;;;;;;;-12.84;100.00;101136.81;5072425;28;20055;-72
2024/01/05 08:07:33;;;;;;;2.85;1.50;;;;;;;-12.90;100.00;101124.03;5073122;28;20036;-72
2024/01/05 08:09:58;;;;;;;3.65;1.67;;;;;;;-12.83;100.00;101138.50;5055807;28;20121;-72
2024/01/05 08:12:24;;;;;;;2.85;1.70;;;;;;;-12.76;100.00;101144.38;5054388;28;20079;-72
2024/01/05 08:14:50;;;;;;;1.92;1.20;;;;;;;-12.72;100.00;101148.56;5072571;28;20024;-72
2024/01/05 08:17:18;;;;;;;3.28;1.20;;;;;;;-12.71;100.00;101133.00;5054606;28;20505;-71
2024/01/05 08:19:43;;;;;;;2.88;1.80;;;;;;;-12.75;100.00;101133.94;5054966;28;20448;-71
2024/01/05 08:22:09;;;;;;;3.40;1.60;;;;;;;-12.77;100.00;101142.69;5071949;28;20112;-71
2024/01/05 08:24:34;;;;;;;5.15;1.65;;;;;;;-12.76;100.00;101144.38;5071810;28;20483;-72
2024/01/05 08:27:00;;;;;;;3.90;1.80;;;;;;;-12.73;100.00;101139.09;5054024;28;20040;-72
2024/01/05 08:29:25;;;;;;;3.35;1.83;;;;;;;-12.69;100.00;101140.72;5038112;28;20036;-72
2024/01/05 08:31:51;;;;;;;2.63;1.85;;;;;;;-12.68;100.00;101142.41;5041989;28;20419;-72
2024/01/05 08:34:17;;;;;;;5.22;1.85;;;;;;;-12.76;100.00;101126.22;5055871;28;20071;-72
2024/01/05 08:36:43;;;;;;;3.15;1.67;;;;;;;-12.62;100.00;101142.22;5072532;28;20037;-72
2024/01/05 08:39:08;;;;;;;5.38;2.08;;;;;;;-12.60;100.00;101151.66;5038579;28;20055;-72
2024/01/05 08:41:34;;;;;;;3.75;2.08;;;;;;;-12.65;100.00;101137.13;5055541;28;20049;-72
2024/01/05 08:43:59;;;;;;;2.85;1.80;;;;;;;-12.62;100.00;101143.06;5058058;28;20080;-71
2024/01/05 08:46:28;;;;;;;3.50;1.95;;;;;;;-12.61;100.00;101133.59;5072267;28;20036;-71
2024/01/05 08:48:53;;;;;;;4.03;1.95;;;;;;;-12.60;100.00;101119.72;5054774;28;20028;-71
2024/01/05 08:51:19;;;;;;;3.17;1.88;;;;;;;-12.48;100.00;101147.88;5037932;28;20523;-71
2024/01/05 08:53:45;;;;;;;5.57;1.83;;;;;;;-12.46;100.00;101153.00;5054512;28;20051;-71
2024/01/05 08:56:10;;;;;;;5.40;2.05;;;;;;;-12.43;100.00;101150.34;5072346;28;20032;-72
2024/01/05 08:58:35;;;;;;;5.28;2.03;;;;;;;-12.35;100.00;101157.00;5054224;28;20422;-71
2024/01/05 09:01:01;;;;;;;3.58;1.90;;;;;;;-12.55;100.00;101115.22;5053378;28;20024;-71
2024/01/05 09:03:27;;;;;;;4.03;1.70;;;;;;;-12.27;100.00;101151.59;5037113;28;20479;-71
2024/01/05 09:05:52;;;;;;;3.80;2.13;;;;;;;-12.43;100.00;101127.84;5070397;28;20024;-70
2024/01/05 09:08:18;;;;;;;3.70;1.80;;;;;;;-12.18;100.00;101166.88;5057639;28;20051;-72
2024/01/05 09:10:44;;;;;;;3.75;1.70;;;;;;;-12.18;100.00;101163.44;5057673;28;20078;-71
2024/01/05 09:13:09;;;;;;;4.93;1.65;;;;;;;-12.25;100.00;101147.19;5075393;28;20028;-71
2024/01/05 09:15:34;;;;;;;3.53;2.22;;;;;;;-12.07;100.00;101171.75;5074940;28;20085;-71
2024/01/05 09:18:00;;;;;;;3.42;2.00;;;;;;;-12.09;100.00;101163.13;5074465;28;20123;-71
2024/01/05 09:20:25;;;;;;;4.25;1.63;;;;;;;-12.01;100.00;101186.28;5056885;28;20033;-72
2024/01/05 09:22:50;;;;;;;4.82;2.05;;;;;;;-11.99;100.00;101190.50;5075699;28;20036;-71
2024/01/05 09:25:16;;;;;;;3.70;2.10;;;;;;;-11.92;100.00;101197.22;5075678;28;20483;-72
2024/01/05 09:27:42;;;;;;;5.57;2.00;;;;;;;-12.11;100.00;101154.56;5059122;28;20066;-72
2024/01/05 09:30:08;;;;;;;2.72;1.42;;;;;;;-11.78;100.00;101201.13;5058394;28;20021;-72
2024/01/05 09:32:33;;;;;;;5.35;2.40;;;;;;;-11.71;100.00;101205.22;5075320;28;20044;-72
2024/01/05 09:34:59;;;;;;;5.03;2.42;;;;;;;-11.78;100.00;101199.38;5056819;28;20546;-71
2024/01/05 09:37:24;;;;;;;4.80;2.28;;;;;;;-11.78;100.00;101201.97;5057668;28;20039;-71
2024/01/05 09:39:50;;;;;;;4.43;2.53;;;;;;;-11.77;100.00;101203.66;5040635;28;20400;-71
2024/01/05 09:42:15;;;;;;;4.57;2.33;;;;;;;-11.80;100.00;101192.50;5075164;28;20086;-71
2024/01/05 09:44:42;;;;;;;3.50;1.90;;;;;;;-11.76;100.00;101204.50;5057439;28;20037;-71
2024/01/05 09:47:08;;;;;;;4.82;1.98;;;;;;;-11.69;100.00;101201.66;5075390;28;20046;-71
2024/01/05 09:49:37;;;;;;;3.50;2.00;;;;;;;-11.80;100.00;101184.72;5075304;28;20028;-71
2024/01/05 09:52:02;;;;;;;4.72;1.50;;;;;;;-11.75;100.00;101188.88;5056929;28;20522;-71
2024/01/05 09:54:28;;;;;;;4.03;1.83;;;;;;;-11.64;100.00;101209.31;5057178;28;20166;-72
2024/01/05 09:56:53;;;;;;;4.32;2.13;;;;;;;-11.82;100.00;101179.56;5057343;28;20166;-71
2024/01/05 09:59:20;;;;;;;3.53;2.00;;;;;;;-11.61;100.00;101215.25;5056573;28;20127;-72
2024/01/05 10:01:49;;;;;;;3.28;2.08;;;;;;;-11.55;100.00;101206.44;5073544;28;20029;-72
2024/01/05 10:04:15;;;;;;;4.80;1.95;;;;;;;-11.50;100.00;101208.88;5056998;28;20024;-71
2024/01/05 10:06:41;;;;;;;4.65;2.00;;;;;;;-11.45;100.00;101214.78;5056608;28;20056;-71
2024/01/05 10:09:06;;;;;;;3.60;1.90;;;;;;;-11.47;100.00;101207.03;5077467;28;20029;-72
2024/01/05 10:11:34;;;;;;;3.90;1.70;;;;;;;-11.45;100.00;101218.22;5056833;28;20046;-72
2024/01/05 10:14:01;;;;;;;3.55;2.00;;;;;;;-11.46;100.00;101208.72;5057157;28;20024;-72
2024/01/05 10:16:34;;;;;;;3.40;1.60;;;;;;;-11.57;100.00;101179.66;5072458;28;20052;-72
2024/01/05 10:19:27;;;;;;;5.43;2.08;;;;;;;-11.30;100.00;101216.88;5074001;28;20078;-71
2024/01/05 10:21:52;;;;;;;5.03;2.00;;;;;;;-11.43;100.00;101185.25;5072741;28;20450;-72
2024/01/05 10:24:26;;;;;;;3.20;1.90;;;;;;;-11.43;100.00;101185.25;5075848;28;20029;-71
2024/01/05 10:27:12;;;;;;;5.15;2.20;;;;;;;-11.40;100.00;101185.16;5057062;28;20024;-71
2024/01/05 10:29:39;;;;;;;3.30;1.85;;;;;;;-11.28;100.00;101203.84;5074408;28;20039;-72
2024/01/05 10:32:13;;;;;;;4.30;1.70;;;;;;;-11.22;100.00;101203.66;5039571;28;20040;-71
2024/01/05 10:34:43;;;;;;;3.28;1.58;;;;;;;-11.15;100.00;101207.72;5039213;28;20035;-72
2024/01/05 10:37:09;;;;;;;3.15;1.90;;;;;;;-11.13;100.00;101208.50;5058414;28;20039;-72
2024/01/05 10:39:35;;;;;;;2.50;1.60;;;;;;;-11.30;100.00;101183.09;5079403;28;20055;-71
2024/01/05 10:42:22;;;;;;;4.88;1.90;;;;;;;-11.09;100.00;101207.53;5058958;28;20056;-72
2024/01/05 10:44:51;;;;;;;3.60;2.00;;;;;;;-11.04;100.00;101207.38;5056869;28;20017;-73
2024/01/05 10:47:18;;;;;;;4.05;2.20;;;;;;;-11.26;100.00;101152.66;5072531;28;20043;-72
2024/01/05 10:49:50;;;;;;;4.38;1.98;;;;;;;-11.11;100.00;101180.75;5055648;28;20024;-72
2024/01/05 10:52:16;;;;;;;3.47;1.90;;;;;;;-10.95;100.00;101197.50;5056473;28;20099;-72
2024/01/05 10:54:47;;;;;;;2.95;1.95;;;;;;;-11.01;100.00;101187.31;5074190;28;20386;-72
2024/01/05 10:57:14;;;;;;;4.05;1.95;;;;;;;-10.90;100.00;101195.59;5073609;28;20020;-72
2024/01/05 10:59:50;;;;;;;3.40;1.75;;;;;;;-10.84;100.00;101204.09;5055467;28;20136;-72
2024/01/05 11:02:23;;;;;;;3.95;1.90;;;;;;;-10.79;100.00;101197.84;5056117;28;20033;-72
2024/01/05 11:04:59;;;;;;;3.35;2.10;;;;;;;-10.79;100.00;101195.25;5055878;28;20162;-71